Time;durP1;ratioP1;P1;durP2;ratioP2;P2;SDS_P1;SDS_P2;PMS_P1;PMS_P2;Temp;Humidity;BMP_temperature;BMP_pressure;BME280_temperature;BME280_humidity;BME280_pressure;Samples;Min_cycle;Max_cycle;Signal;HPM_P1;HPM_P2
2023/12/04 00:01:31;;;;;;;25.33;10.27;;;;;;;;;;5031876;28;20017;-64
2023/12/04 00:03:57;;;;;;;27.98;10.93;;;;;;;;;;5031640;28;20022;-64
2023/12/04 00:06:22;;;;;;;21.55;9.27;;;;;;;;;;5031732;28;20025;-62
2023/12/04 00:08:48;;;;;;;21.30;8.90;;;;;;;;;;5034881;28;20029;-64
2023/12/04 00:11:13;;;;;;;25.75;9.15;;;;;;;;;;5031017;28;20030;-63
2023/12/04 00:13:38;;;;;;;23.13;9.98;;;;;;;;;;5025966;28;20014;-66
2023/12/04 00:16:04;;;;;;;18.85;9.90;;;;;;;;;;5029301;28;20025;-66
2023/12/04 00:18:29;;;;;;;22.58;10.40;;;;;;;;;;5031095;28;20014;-66
2023/12/04 00:20:54;;;;;;;27.83;9.68;;;;;;;;;;5031834;28;20010;-64
2023/12/04 00:23:19;;;;;;;31.00;11.00;;;;;;;;;;5031383;28;20040;-65
2023/12/04 00:25:45;;;;;;;24.70;9.57;;;;;;;;;;5032470;23;20033;-69
2023/12/04 00:28:10;;;;;;;29.30;11.45;;;;;;;;;;5022260;28;20105;-69
2023/12/04 00:30:35;;;;;;;21.58;9.75;;;;;;;;;;5023560;28;20075;-69
2023/12/04 00:33:00;;;;;;;21.95;9.85;;;;;;;;;;5015995;28;20307;-69
2023/12/04 00:35:25;;;;;;;20.70;9.90;;;;;;;;;;5023185;28;20428;-68
2023/12/04 00:37:51;;;;;;;21.77;10.80;;;;;;;;;;5028578;28;20388;-68
2023/12/04 00:40:16;;;;;;;22.65;10.15;;;;;;;;;;5029530;28;20119;-69
2023/12/04 00:42:41;;;;;;;23.92;10.23;;;;;;;;;;5023317;28;20565;-66
2023/12/04 00:45:07;;;;;;;26.20;10.73;;;;;;;;;;5028237;28;20041;-68
2023/12/04 00:47:32;;;;;;;25.45;10.30;;;;;;;;;;5026618;28;20024;-68
2023/12/04 00:49:57;;;;;;;30.77;10.40;;;;;;;;;;5028675;28;20434;-68
2023/12/04 00:52:23;;;;;;;25.90;9.35;;;;;;;;;;5026982;28;20496;-67
2023/12/04 00:54:48;;;;;;;19.63;9.02;;;;;;;;;;5027876;28;20017;-66
2023/12/04 00:57:13;;;;;;;21.23;10.20;;;;;;;;;;5027307;28;20048;-67
2023/12/04 00:59:38;;;;;;;22.30;9.80;;;;;;;;;;5028212;28;20010;-68
2023/12/04 01:02:06;;;;;;;19.52;10.50;;;;;;;;;;5028385;28;20033;-67
2023/12/04 01:04:31;;;;;;;26.85;11.60;;;;;;;;;;5028433;28;20033;-68
2023/12/04 01:06:56;;;;;;;28.55;11.85;;;;;;;;;;5029374;28;20017;-67
2023/12/04 01:09:24;;;;;;;23.25;9.88;;;;;;;;;;5026899;28;20034;-67
2023/12/04 01:11:50;;;;;;;27.02;11.48;;;;;;;;;;5026763;28;20385;-67
2023/12/04 01:14:15;;;;;;;28.52;11.25;;;;;;;;;;5024059;28;20125;-68
2023/12/04 01:16:40;;;;;;;24.95;10.50;;;;;;;;;;5026031;28;20105;-68
2023/12/04 01:19:07;;;;;;;26.92;11.27;;;;;;;;;;5027096;28;20345;-68
2023/12/04 01:21:32;;;;;;;25.45;10.10;;;;;;;;;;5029346;28;20021;-68
2023/12/04 01:23:57;;;;;;;21.08;9.70;;;;;;;;;;5027656;28;20120;-68
2023/12/04 01:26:22;;;;;;;29.17;10.80;;;;;;;;;;5024587;28;20112;-68
2023/12/04 01:28:48;;;;;;;24.20;10.15;;;;;;;;;;5027026;28;20021;-68
2023/12/04 01:31:13;;;;;;;21.77;10.38;;;;;;;;;;5027053;28;20499;-68
2023/12/04 01:33:38;;;;;;;29.95;10.68;;;;;;;;;;5028520;28;20104;-68
2023/12/04 01:36:04;;;;;;;21.45;10.15;;;;;;;;;;5027965;28;20116;-68
2023/12/04 01:38:29;;;;;;;20.05;9.30;;;;;;;;;;5028591;28;20105;-68
2023/12/04 01:40:54;;;;;;;23.10;10.48;;;;;;;;;;5026870;28;20432;-68
2023/12/04 01:43:19;;;;;;;22.63;10.45;;;;;;;;;;5035200;28;20472;-67
2023/12/04 01:45:45;;;;;;;24.42;9.23;;;;;;;;;;5026044;28;20493;-68
2023/12/04 01:48:10;;;;;;;18.95;9.00;;;;;;;;;;5025544;28;20041;-68
2023/12/04 01:50:36;;;;;;;16.15;8.80;;;;;;;;;;5029052;28;20028;-68
2023/12/04 01:53:01;;;;;;;23.67;10.90;;;;;;;;;;5028060;28;20087;-68
2023/12/04 01:55:28;;;;;;;19.38;10.05;;;;;;;;;;5027939;28;20457;-67
2023/12/04 01:57:55;;;;;;;29.63;10.35;;;;;;;;;;5028853;28;20092;-66
2023/12/04 02:00:21;;;;;;;22.85;10.15;;;;;;;;;;5027664;28;20048;-68
2023/12/04 02:02:46;;;;;;;26.55;11.15;;;;;;;;;;5025774;28;20026;-66
2023/12/04 02:05:12;;;;;;;23.58;9.95;;;;;;;;;;5027601;28;20017;-66
2023/12/04 02:07:40;;;;;;;20.13;9.40;;;;;;;;;;5030157;28;20029;-67
2023/12/04 02:10:06;;;;;;;20.23;8.93;;;;;;;;;;5027056;28;20040;-66
2023/12/04 02:12:31;;;;;;;20.35;9.65;;;;;;;;;;5027703;28;20037;-68
2023/12/04 02:14:57;;;;;;;21.98;9.02;;;;;;;;;;5023952;28;20021;-67
2023/12/04 02:17:22;;;;;;;21.00;8.82;;;;;;;;;;5028287;28;20656;-66
2023/12/04 02:19:48;;;;;;;20.08;8.32;;;;;;;;;;5025516;28;20018;-67
2023/12/04 02:22:13;;;;;;;20.17;8.55;;;;;;;;;;5020811;28;20102;-67
2023/12/04 02:24:39;;;;;;;21.02;9.07;;;;;;;;;;5025832;28;20149;-66
2023/12/04 02:27:05;;;;;;;20.05;9.05;;;;;;;;;;5025064;28;20025;-67
2023/12/04 02:29:34;;;;;;;21.88;9.80;;;;;;;;;;5027814;28;20076;-68
2023/12/04 02:32:01;;;;;;;23.33;9.57;;;;;;;;;;5027826;28;20018;-67
2023/12/04 02:34:27;;;;;;;19.17;8.55;;;;;;;;;;5026724;28;20092;-67
2023/12/04 02:36:53;;;;;;;19.67;9.82;;;;;;;;;;5026004;28;20087;-67
2023/12/04 02:39:18;;;;;;;24.48;9.20;;;;;;;;;;5026949;28;20013;-67
2023/12/04 02:41:43;;;;;;;20.27;8.60;;;;;;;;;;5024912;28;20021;-66
2023/12/04 02:44:09;;;;;;;20.42;8.38;;;;;;;;;;5032116;28;20052;-68
2023/12/04 02:46:34;;;;;;;19.85;8.70;;;;;;;;;;5022294;28;20439;-67
2023/12/04 02:48:59;;;;;;;21.42;9.73;;;;;;;;;;5026826;28;20476;-66
2023/12/04 02:51:26;;;;;;;28.95;9.57;;;;;;;;;;5027067;28;20082;-68
2023/12/04 02:53:51;;;;;;;19.63;8.95;;;;;;;;;;5026706;28;20021;-67
2023/12/04 02:56:16;;;;;;;22.42;8.07;;;;;;;;;;5028311;28;20087;-66
2023/12/04 02:58:41;;;;;;;19.30;8.45;;;;;;;;;;5026625;28;20040;-66
2023/12/04 03:01:07;;;;;;;30.23;9.38;;;;;;;;;;5025140;28;20026;-67
2023/12/04 03:03:32;;;;;;;17.20;7.97;;;;;;;;;;5025306;28;20021;-67
2023/12/04 03:05:57;;;;;;;20.13;9.05;;;;;;;;;;5024450;28;20519;-67
2023/12/04 03:08:22;;;;;;;20.05;9.68;;;;;;;;;;5029238;28;20650;-66
2023/12/04 03:10:47;;;;;;;20.25;8.18;;;;;;;;;;5026344;28;20040;-65
2023/12/04 03:13:13;;;;;;;21.08;7.70;;;;;;;;;;5023845;28;20032;-67
2023/12/04 03:15:38;;;;;;;16.67;8.63;;;;;;;;;;5022046;28;20014;-67
2023/12/04 03:18:03;;;;;;;18.88;7.60;;;;;;;;;;5023594;28;20113;-67
2023/12/04 03:20:28;;;;;;;23.33;8.20;;;;;;;;;;5027935;28;20142;-67
2023/12/04 03:22:53;;;;;;;21.75;8.70;;;;;;;;;;5025173;28;20021;-68
2023/12/04 03:25:19;;;;;;;20.73;7.82;;;;;;;;;;5025085;28;20055;-66
2023/12/04 03:27:44;;;;;;;14.95;7.32;;;;;;;;;;5024400;28;20025;-67
2023/12/04 03:30:09;;;;;;;17.95;7.30;;;;;;;;;;5027014;28;20484;-67
2023/12/04 03:32:35;;;;;;;15.30;7.82;;;;;;;;;;5026291;28;20021;-67
2023/12/04 03:35:01;;;;;;;15.75;6.45;;;;;;;;;;5026593;28;20017;-67
2023/12/04 03:37:26;;;;;;;16.77;6.90;;;;;;;;;;5023514;28;20045;-68
2023/12/04 03:39:51;;;;;;;16.23;7.72;;;;;;;;;;5025616;28;20100;-65
2023/12/04 03:42:17;;;;;;;16.90;7.47;;;;;;;;;;5027551;28;20026;-67
2023/12/04 03:44:42;;;;;;;15.20;6.93;;;;;;;;;;5031373;28;20021;-67
2023/12/04 03:47:07;;;;;;;16.83;7.10;;;;;;;;;;5023442;28;20029;-67
2023/12/04 03:49:32;;;;;;;19.75;8.30;;;;;;;;;;5024898;28;20080;-67
2023/12/04 03:51:57;;;;;;;19.20;7.57;;;;;;;;;;5024749;28;20025;-67
2023/12/04 03:54:23;;;;;;;14.90;7.47;;;;;;;;;;5023687;28;20379;-67
2023/12/04 03:56:48;;;;;;;18.27;7.43;;;;;;;;;;5025505;28;20540;-68
2023/12/04 03:59:13;;;;;;;19.10;7.47;;;;;;;;;;5024779;28;20036;-67
2023/12/04 04:01:38;;;;;;;15.85;6.82;;;;;;;;;;5024463;28;20022;-67
2023/12/04 04:04:03;;;;;;;12.98;6.75;;;;;;;;;;5023726;28;20025;-67
2023/12/04 04:06:29;;;;;;;17.50;8.30;;;;;;;;;;5025343;28;20037;-67
2023/12/04 04:08:54;;;;;;;17.83;7.53;;;;;;;;;;5026576;28;20056;-67
2023/12/04 04:11:19;;;;;;;20.50;7.82;;;;;;;;;;5023829;28;20086;-67
2023/12/04 04:13:44;;;;;;;15.73;6.70;;;;;;;;;;5018276;28;20059;-67
2023/12/04 04:16:14;;;;;;;16.80;7.47;;;;;;;;;;5023621;28;20142;-67
2023/12/04 04:18:39;;;;;;;17.80;7.95;;;;;;;;;;5024305;28;20021;-67
2023/12/04 04:21:04;;;;;;;17.80;6.63;;;;;;;;;;5026927;28;20026;-67
2023/12/04 04:23:30;;;;;;;18.77;9.25;;;;;;;;;;5022753;28;20409;-67
2023/12/04 04:25:55;;;;;;;18.15;7.65;;;;;;;;;;5025082;28;20105;-68
2023/12/04 04:28:20;;;;;;;28.00;8.55;;;;;;;;;;5027872;28;20425;-67
2023/12/04 04:30:46;;;;;;;14.45;6.90;;;;;;;;;;5029816;28;20345;-67
2023/12/04 04:33:11;;;;;;;15.13;7.75;;;;;;;;;;5028947;28;20033;-66
2023/12/04 04:35:36;;;;;;;19.08;7.93;;;;;;;;;;5030201;28;20040;-67
2023/12/04 04:38:01;;;;;;;14.85;6.15;;;;;;;;;;5028384;28;20424;-67
2023/12/04 04:40:27;;;;;;;19.23;7.85;;;;;;;;;;5031769;28;20408;-68
2023/12/04 04:42:52;;;;;;;15.18;7.35;;;;;;;;;;5035305;28;20429;-66
2023/12/04 04:45:17;;;;;;;13.48;5.90;;;;;;;;;;5029377;28;20066;-68
2023/12/04 04:47:42;;;;;;;15.35;7.38;;;;;;;;;;5017332;28;20017;-66
2023/12/04 04:50:08;;;;;;;13.85;6.68;;;;;;;;;;5024464;28;20029;-67
2023/12/04 04:52:33;;;;;;;15.88;7.35;;;;;;;;;;5028159;28;20056;-68
2023/12/04 04:54:58;;;;;;;16.30;6.43;;;;;;;;;;5036797;28;20013;-67
2023/12/04 04:57:23;;;;;;;16.85;7.47;;;;;;;;;;5028619;28;20040;-67
2023/12/04 04:59:49;;;;;;;15.02;6.30;;;;;;;;;;5024447;28;20104;-67
2023/12/04 05:02:14;;;;;;;15.95;6.85;;;;;;;;;;5026427;28;20025;-70
2023/12/04 05:04:39;;;;;;;15.18;7.03;;;;;;;;;;5027157;28;20017;-66
2023/12/04 05:07:04;;;;;;;20.58;7.68;;;;;;;;;;5031528;28;20028;-67
2023/12/04 05:09:30;;;;;;;18.40;7.45;;;;;;;;;;5027000;28;20176;-68
2023/12/04 05:11:55;;;;;;;17.60;7.03;;;;;;;;;;5023063;28;20036;-67
2023/12/04 05:14:20;;;;;;;25.33;7.75;;;;;;;;;;5026476;28;20053;-68
2023/12/04 05:16:45;;;;;;;15.70;6.50;;;;;;;;;;5026356;28;20030;-67
2023/12/04 05:19:10;;;;;;;16.27;6.65;;;;;;;;;;5024834;28;20428;-68
2023/12/04 05:21:36;;;;;;;16.00;7.70;;;;;;;;;;5028097;28;20380;-67
2023/12/04 05:24:01;;;;;;;13.60;7.07;;;;;;;;;;5025465;28;21932;-66
2023/12/04 05:26:26;;;;;;;17.02;7.05;;;;;;;;;;5027524;28;20452;-68
2023/12/04 05:28:51;;;;;;;16.90;7.55;;;;;;;;;;5028766;28;20025;-66
2023/12/04 05:31:17;;;;;;;16.35;7.18;;;;;;;;;;5026249;28;20525;-69
2023/12/04 05:33:45;;;;;;;14.07;6.32;;;;;;;;;;5023500;28;20041;-70
2023/12/04 05:36:10;;;;;;;16.98;7.25;;;;;;;;;;5020211;28;20338;-69
2023/12/04 05:38:36;;;;;;;15.80;7.35;;;;;;;;;;5027756;28;20530;-69
2023/12/04 05:41:01;;;;;;;16.92;7.32;;;;;;;;;;5024748;28;20017;-68
2023/12/04 05:43:26;;;;;;;13.38;6.03;;;;;;;;;;5035286;28;20422;-69
2023/12/04 05:45:51;;;;;;;14.20;6.03;;;;;;;;;;5024642;28;20098;-68
2023/12/04 05:48:16;;;;;;;16.15;6.63;;;;;;;;;;5027059;28;20010;-71
2023/12/04 05:50:42;;;;;;;14.27;6.72;;;;;;;;;;5027429;28;20027;-66
2023/12/04 05:53:07;;;;;;;19.63;8.20;;;;;;;;;;5026824;28;20048;-69
2023/12/04 05:55:33;;;;;;;17.77;7.20;;;;;;;;;;5027377;28;20460;-67
2023/12/04 05:57:58;;;;;;;14.50;6.22;;;;;;;;;;5029033;28;20025;-68
2023/12/04 06:00:23;;;;;;;18.63;8.10;;;;;;;;;;5028717;28;20074;-70
2023/12/04 06:02:49;;;;;;;14.20;6.57;;;;;;;;;;5028103;28;20044;-69
2023/12/04 06:05:14;;;;;;;20.48;7.60;;;;;;;;;;5027925;28;20075;-66
2023/12/04 06:07:40;;;;;;;12.63;6.65;;;;;;;;;;5031446;28;20064;-69
2023/12/04 06:10:06;;;;;;;13.02;5.88;;;;;;;;;;5026904;28;20017;-67
2023/12/04 06:12:31;;;;;;;10.55;5.82;;;;;;;;;;5026667;28;20405;-69
2023/12/04 06:14:58;;;;;;;15.15;6.00;;;;;;;;;;5021504;28;20029;-68
2023/12/04 06:17:23;;;;;;;12.95;6.07;;;;;;;;;;5024844;28;20083;-69
2023/12/04 06:19:48;;;;;;;10.10;5.13;;;;;;;;;;5024989;28;20033;-67
2023/12/04 06:22:14;;;;;;;21.42;6.47;;;;;;;;;;5026139;28;20033;-70
2023/12/04 06:24:39;;;;;;;11.38;5.43;;;;;;;;;;5043430;22;20046;-62
2023/12/04 06:27:06;;;;;;;24.80;5.97;;;;;;;;;;5005930;28;20494;-63
2023/12/04 06:29:31;;;;;;;14.90;6.38;;;;;;;;;;5012793;28;20056;-65
2023/12/04 06:31:56;;;;;;;11.23;5.70;;;;;;;;;;5015174;28;20053;-65
2023/12/04 06:34:22;;;;;;;13.98;5.63;;;;;;;;;;5018013;28;20017;-65
2023/12/04 06:36:47;;;;;;;12.40;5.57;;;;;;;;;;5044457;28;20033;-65
2023/12/04 06:39:13;;;;;;;12.50;5.07;;;;;;;;;;5031298;28;20112;-65
2023/12/04 06:41:39;;;;;;;12.60;5.05;;;;;;;;;;5043359;28;20021;-64
2023/12/04 06:44:05;;;;;;;15.73;5.22;;;;;;;;;;5031696;28;20025;-64
2023/12/04 06:46:30;;;;;;;12.80;5.70;;;;;;;;;;5037229;28;20060;-64
2023/12/04 06:48:59;;;;;;;38.10;13.70;;;;;;;;;;5044932;28;20117;-64
2023/12/04 06:51:24;;;;;;;19.42;5.47;;;;;;;;;;5040742;28;20014;-64
2023/12/04 06:53:49;;;;;;;12.57;5.35;;;;;;;;;;5034004;28;20024;-64
2023/12/04 06:56:15;;;;;;;13.57;5.60;;;;;;;;;;5035318;28;20600;-66
2023/12/04 06:58:40;;;;;;;13.32;5.40;;;;;;;;;;5039414;28;20219;-65
2023/12/04 07:01:05;;;;;;;14.57;6.15;;;;;;;;;;5025573;28;20070;-65
2023/12/04 07:03:31;;;;;;;14.50;5.80;;;;;;;;;;5043280;28;20013;-65
2023/12/04 07:05:56;;;;;;;17.88;8.05;;;;;;;;;;5029552;28;20134;-65
2023/12/04 07:08:21;;;;;;;17.05;7.07;;;;;;;;;;5033923;28;20659;-64
2023/12/04 07:10:47;;;;;;;11.85;5.85;;;;;;;;;;5036041;28;20073;-64
2023/12/04 07:13:14;;;;;;;10.82;4.93;;;;;;;;;;5032834;28;20130;-65
2023/12/04 07:15:39;;;;;;;21.02;5.90;;;;;;;;;;5036655;28;20021;-63
2023/12/04 07:18:04;;;;;;;15.73;6.55;;;;;;;;;;5039919;28;20021;-64
2023/12/04 07:20:29;;;;;;;15.82;6.13;;;;;;;;;;5041712;28;20013;-64
2023/12/04 07:22:55;;;;;;;17.48;4.85;;;;;;;;;;5031741;28;20018;-65
2023/12/04 07:25:20;;;;;;;14.10;5.82;;;;;;;;;;5048289;28;20029;-65
2023/12/04 07:27:46;;;;;;;11.45;5.68;;;;;;;;;;5035408;28;20091;-65
2023/12/04 07:30:11;;;;;;;18.70;7.70;;;;;;;;;;5045868;28;20072;-66
2023/12/04 07:32:37;;;;;;;11.88;5.72;;;;;;;;;;5036507;28;20017;-64
2023/12/04 07:35:02;;;;;;;16.17;6.53;;;;;;;;;;5042677;28;20158;-65
2023/12/04 07:37:30;;;;;;;15.48;5.60;;;;;;;;;;5025314;28;20049;-65
2023/12/04 07:39:55;;;;;;;11.05;5.43;;;;;;;;;;5036316;28;20791;-65
2023/12/04 07:42:20;;;;;;;14.55;5.85;;;;;;;;;;5039019;28;20039;-66
2023/12/04 07:44:45;;;;;;;10.75;5.88;;;;;;;;;;5043397;28;20467;-65
2023/12/04 07:47:11;;;;;;;13.35;7.05;;;;;;;;;;5037828;28;20025;-64
2023/12/04 07:49:36;;;;;;;13.68;6.53;;;;;;;;;;5038639;28;20021;-64
2023/12/04 07:52:01;;;;;;;13.43;6.22;;;;;;;;;;5032618;28;20041;-65
2023/12/04 07:54:27;;;;;;;15.13;5.93;;;;;;;;;;5035624;28;20112;-62
2023/12/04 07:56:53;;;;;;;14.68;5.53;;;;;;;;;;5030709;28;20093;-64
2023/12/04 07:59:18;;;;;;;15.15;6.38;;;;;;;;;;5034674;28;20048;-64
2023/12/04 08:01:44;;;;;;;10.27;5.10;;;;;;;;;;5038125;28;20336;-64
2023/12/04 08:04:10;;;;;;;12.82;5.57;;;;;;;;;;5045914;28;20431;-65
2023/12/04 08:06:35;;;;;;;12.75;4.68;;;;;;;;;;5050580;28;20099;-65
2023/12/04 08:09:00;;;;;;;8.88;4.55;;;;;;;;;;5036754;28;20048;-65
2023/12/04 08:11:25;;;;;;;12.55;4.88;;;;;;;;;;5047670;28;20013;-64
2023/12/04 08:13:50;;;;;;;8.98;4.35;;;;;;;;;;5033578;28;20053;-65
2023/12/04 08:16:16;;;;;;;11.05;3.97;;;;;;;;;;5028975;28;20366;-65
2023/12/04 08:18:41;;;;;;;12.98;4.40;;;;;;;;;;5042235;28;20487;-63
2023/12/04 08:21:06;;;;;;;12.20;3.85;;;;;;;;;;5041465;28;20029;-64
2023/12/04 08:23:32;;;;;;;9.48;3.63;;;;;;;;;;5045411;28;20036;-64
2023/12/04 08:25:57;;;;;;;9.20;3.55;;;;;;;;;;5044998;28;20025;-65
2023/12/04 08:28:22;;;;;;;12.70;4.65;;;;;;;;;;5043206;28;20088;-65
2023/12/04 08:30:48;;;;;;;9.77;4.22;;;;;;;;;;5043873;28;20078;-63
2023/12/04 08:33:13;;;;;;;9.85;4.05;;;;;;;;;;5033501;28;20108;-65
2023/12/04 08:35:38;;;;;;;13.93;5.45;;;;;;;;;;5033380;28;20100;-62
2023/12/04 08:38:03;;;;;;;12.55;4.88;;;;;;;;;;5037152;28;20033;-62
2023/12/04 08:40:29;;;;;;;12.88;4.68;;;;;;;;;;5035296;28;20020;-62
2023/12/04 08:42:54;;;;;;;12.45;5.00;;;;;;;;;;5039860;28;20022;-64
2023/12/04 08:45:19;;;;;;;11.07;4.82;;;;;;;;;;5037942;28;20020;-63
2023/12/04 08:47:44;;;;;;;9.57;4.45;;;;;;;;;;5035350;28;20097;-63
2023/12/04 08:50:09;;;;;;;13.57;4.65;;;;;;;;;;5037771;28;20025;-63
2023/12/04 08:52:35;;;;;;;13.52;5.25;;;;;;;;;;5036535;28;20492;-66
2023/12/04 08:55:01;;;;;;;10.80;4.95;;;;;;;;;;5035462;28;20049;-63
2023/12/04 08:57:26;;;;;;;15.38;6.38;;;;;;;;;;5048225;28;20017;-64
2023/12/04 08:59:51;;;;;;;14.52;5.18;;;;;;;;;;5038808;28;20390;-62
2023/12/04 09:02:17;;;;;;;10.60;4.65;;;;;;;;;;5040707;28;20009;-65
2023/12/04 09:04:42;;;;;;;13.50;6.32;;;;;;;;;;5037260;28;20022;-63
2023/12/04 09:07:07;;;;;;;14.70;6.00;;;;;;;;;;5031026;28;20395;-64
2023/12/04 09:09:33;;;;;;;13.15;5.13;;;;;;;;;;5034061;28;20017;-62
2023/12/04 09:11:58;;;;;;;12.15;5.72;;;;;;;;;;5045031;28;20461;-62
2023/12/04 09:14:23;;;;;;;12.65;5.13;;;;;;;;;;5028621;28;20039;-66
2023/12/04 09:16:48;;;;;;;16.55;5.28;;;;;;;;;;5041750;28;20013;-65
2023/12/04 09:19:14;;;;;;;12.13;4.95;;;;;;;;;;5034183;28;20062;-66
2023/12/04 09:21:39;;;;;;;10.13;4.88;;;;;;;;;;5041400;28;20098;-64
2023/12/04 09:24:04;;;;;;;8.77;4.32;;;;;;;;;;5027685;28;20014;-65
2023/12/04 09:26:29;;;;;;;12.80;4.90;;;;;;;;;;5041930;28;20024;-65
2023/12/04 09:28:55;;;;;;;11.38;4.40;;;;;;;;;;5038129;28;20026;-65
2023/12/04 09:31:20;;;;;;;19.95;5.30;;;;;;;;;;5030260;28;20018;-66
2023/12/04 09:33:47;;;;;;;11.32;5.40;;;;;;;;;;5028834;28;20037;-66
2023/12/04 09:36:12;;;;;;;14.48;5.90;;;;;;;;;;5028906;28;20067;-65
2023/12/04 09:38:38;;;;;;;11.55;4.85;;;;;;;;;;5029275;28;20045;-66
2023/12/04 09:41:06;;;;;;;10.30;4.55;;;;;;;;;;5042911;28;20044;-64
2023/12/04 09:43:32;;;;;;;10.50;4.70;;;;;;;;;;5031931;28;20026;-66
2023/12/04 09:45:57;;;;;;;10.23;4.68;;;;;;;;;;5029952;28;20050;-65
2023/12/04 09:48:25;;;;;;;12.73;5.20;;;;;;;;;;5024663;28;20018;-64
2023/12/04 09:50:51;;;;;;;10.68;4.72;;;;;;;;;;5034699;28;20155;-65
2023/12/04 09:53:16;;;;;;;10.40;4.50;;;;;;;;;;5045606;28;20379;-66
2023/12/04 09:55:41;;;;;;;12.90;4.70;;;;;;;;;;5037107;28;20029;-64
2023/12/04 09:58:07;;;;;;;11.68;5.68;;;;;;;;;;5037964;28;20029;-64
2023/12/04 10:00:32;;;;;;;16.85;5.88;;;;;;;;;;5034276;28;20104;-65
2023/12/04 10:02:59;;;;;;;11.68;5.20;;;;;;;;;;5023030;28;20052;-65
2023/12/04 10:05:24;;;;;;;11.90;4.88;;;;;;;;;;5033749;28;20048;-62
2023/12/04 10:07:50;;;;;;;11.02;4.30;;;;;;;;;;5035444;28;20485;-63
2023/12/04 10:10:15;;;;;;;8.52;4.32;;;;;;;;;;5030282;28;20173;-64
2023/12/04 10:12:40;;;;;;;9.52;4.63;;;;;;;;;;5017510;28;20462;-66
2023/12/04 10:15:09;;;;;;;11.77;4.78;;;;;;;;;;5041279;28;20075;-64
2023/12/04 10:17:37;;;;;;;11.95;4.60;;;;;;;;;;5036272;28;20009;-63
2023/12/04 10:20:12;;;;;;;10.35;4.63;;;;;;;;;;5041153;28;20017;-62
2023/12/04 10:22:52;;;;;;;12.98;4.57;;;;;;;;;;5042124;28;20036;-61
2023/12/04 10:25:20;;;;;;;12.25;3.97;;;;;;;;;;5024553;28;20031;-64
2023/12/04 10:27:46;;;;;;;15.95;4.45;;;;;;;;;;5021691;28;20724;-65
2023/12/04 10:30:24;;;;;;;12.65;4.65;;;;;;;;;;5024018;28;20025;-67
2023/12/04 10:32:53;;;;;;;9.03;4.17;;;;;;;;;;5022544;28;20045;-63
2023/12/04 10:35:18;;;;;;;10.15;5.00;;;;;;;;;;5022379;28;20381;-64
2023/12/04 10:37:44;;;;;;;12.38;5.57;;;;;;;;;;5022361;28;20018;-64
2023/12/04 10:40:09;;;;;;;9.93;4.78;;;;;;;;;;5023337;28;20029;-66
2023/12/04 10:42:34;;;;;;;22.92;5.72;;;;;;;;;;5024366;28;20026;-64
2023/12/04 10:45:00;;;;;;;13.48;6.05;;;;;;;;;;5024352;28;20433;-64
2023/12/04 10:47:26;;;;;;;10.93;4.15;;;;;;;;;;5020815;28;20090;-65
2023/12/04 10:49:51;;;;;;;13.15;5.47;;;;;;;;;;5020904;28;20017;-64
2023/12/04 10:52:19;;;;;;;10.90;4.95;;;;;;;;;;5022819;28;20598;-65
2023/12/04 10:54:44;;;;;;;12.82;5.75;;;;;;;;;;5023631;28;20013;-65
2023/12/04 10:57:10;;;;;;;12.35;5.22;;;;;;;;;;5024210;28;20469;-65
2023/12/04 10:59:36;;;;;;;14.80;6.03;;;;;;;;;;5021936;28;20021;-63
2023/12/04 11:02:04;;;;;;;16.15;5.30;;;;;;;;;;5020823;28;20036;-65
2023/12/04 11:04:30;;;;;;;12.35;6.40;;;;;;;;;;5022169;28;20409;-64
2023/12/04 11:06:57;;;;;;;15.38;5.55;;;;;;;;;;5020700;28;20025;-65
2023/12/04 11:09:26;;;;;;;17.35;6.22;;;;;;;;;;5021724;28;20036;-64
2023/12/04 11:11:53;;;;;;;11.88;4.93;;;;;;;;;;5022907;28;20032;-65
2023/12/04 11:14:22;;;;;;;16.17;5.15;;;;;;;;;;5021928;28;20540;-68
2023/12/04 11:16:48;;;;;;;13.52;5.95;;;;;;;;;;5021734;28;20034;-63
2023/12/04 11:19:16;;;;;;;13.32;5.32;;;;;;;;;;5017846;28;20026;-66
2023/12/04 11:21:44;;;;;;;11.67;5.17;;;;;;;;;;5019336;28;20025;-64
2023/12/04 11:24:09;;;;;;;9.98;4.38;;;;;;;;;;5022189;28;20029;-64
2023/12/04 11:26:35;;;;;;;10.25;4.13;;;;;;;;;;5020858;28;20041;-65
2023/12/04 11:29:01;;;;;;;8.73;3.67;;;;;;;;;;5019641;28;20041;-65
2023/12/04 11:31:27;;;;;;;12.55;4.55;;;;;;;;;;5020585;28;20098;-66
2023/12/04 11:33:52;;;;;;;19.55;9.20;;;;;;;;;;5019474;28;20124;-64
2023/12/04 11:36:17;;;;;;;15.20;5.82;;;;;;;;;;5020229;28;20083;-64
2023/12/04 11:38:44;;;;;;;14.27;5.22;;;;;;;;;;5025683;28;20452;-65
2023/12/04 11:41:16;;;;;;;11.88;4.68;;;;;;;;;;5023024;28;20036;-63
2023/12/04 11:43:42;;;;;;;12.88;4.97;;;;;;;;;;5023996;28;20013;-64
2023/12/04 11:46:08;;;;;;;10.00;4.30;;;;;;;;;;5024619;28;20091;-65
2023/12/04 11:48:34;;;;;;;9.77;4.10;;;;;;;;;;5025076;28;20094;-66
2023/12/04 11:51:00;;;;;;;12.20;4.22;;;;;;;;;;5026760;28;20032;-65
2023/12/04 11:53:25;;;;;;;9.02;3.78;;;;;;;;;;5026422;28;20025;-65
2023/12/04 11:55:55;;;;;;;12.57;4.47;;;;;;;;;;5026350;28;20029;-64
2023/12/04 11:58:21;;;;;;;8.68;4.35;;;;;;;;;;5024479;28;20018;-63
2023/12/04 12:00:46;;;;;;;11.32;4.53;;;;;;;;;;5024443;28;20029;-64
2023/12/04 12:03:14;;;;;;;12.10;4.68;;;;;;;;;;5024643;28;20013;-65
2023/12/04 12:05:40;;;;;;;8.93;3.70;;;;;;;;;;5025390;28;20032;-65
2023/12/04 12:08:07;;;;;;;10.23;4.32;;;;;;;;;;5027720;28;20442;-65
2023/12/04 12:10:32;;;;;;;14.15;4.60;;;;;;;;;;5024189;28;20025;-64
2023/12/04 12:12:58;;;;;;;13.82;4.90;;;;;;;;;;5025037;28;20075;-64
2023/12/04 12:15:23;;;;;;;11.70;5.20;;;;;;;;;;5025183;28;20057;-65
2023/12/04 12:17:49;;;;;;;9.57;4.03;;;;;;;;;;5025650;28;20751;-65
2023/12/04 12:20:15;;;;;;;10.95;4.53;;;;;;;;;;5023616;28;20032;-63
2023/12/04 12:22:41;;;;;;;11.27;4.80;;;;;;;;;;5023219;28;20052;-64
2023/12/04 12:25:07;;;;;;;11.70;4.20;;;;;;;;;;5026503;28;20033;-65
2023/12/04 12:27:32;;;;;;;12.05;4.32;;;;;;;;;;5022815;28;20036;-67
2023/12/04 12:29:58;;;;;;;9.65;4.10;;;;;;;;;;5021194;28;20048;-64
2023/12/04 12:32:23;;;;;;;10.38;4.18;;;;;;;;;;5025554;28;20621;-65
2023/12/04 12:34:48;;;;;;;12.77;4.97;;;;;;;;;;5022384;28;20021;-67
2023/12/04 12:37:14;;;;;;;10.05;4.65;;;;;;;;;;5021447;28;20021;-66
2023/12/04 12:39:39;;;;;;;10.80;4.68;;;;;;;;;;5020206;28;20112;-65
2023/12/04 12:42:05;;;;;;;10.57;4.45;;;;;;;;;;5026048;28;20750;-64
2023/12/04 12:44:43;;;;;;;8.35;3.95;;;;;;;;;;5023789;28;20132;-65
2023/12/04 12:47:09;;;;;;;11.15;4.28;;;;;;;;;;5021923;28;20018;-65
2023/12/04 12:49:35;;;;;;;10.90;4.95;;;;;;;;;;5020605;28;20028;-66
2023/12/04 12:52:01;;;;;;;18.67;6.40;;;;;;;;;;5025501;28;20048;-64
2023/12/04 12:54:26;;;;;;;15.27;6.15;;;;;;;;;;5024181;28;20053;-63
2023/12/04 12:56:51;;;;;;;15.25;5.25;;;;;;;;;;5023645;28;20056;-65
2023/12/04 12:59:17;;;;;;;27.83;7.75;;;;;;;;;;5022862;28;20026;-64
2023/12/04 13:01:43;;;;;;;13.38;6.47;;;;;;;;;;5027060;28;20037;-66
2023/12/04 13:04:09;;;;;;;13.93;5.82;;;;;;;;;;5023526;28;20380;-63
2023/12/04 13:06:35;;;;;;;14.95;5.75;;;;;;;;;;5024433;28;20030;-66
2023/12/04 13:09:00;;;;;;;12.63;5.38;;;;;;;;;;5013406;28;20044;-65
2023/12/04 13:11:25;;;;;;;14.52;7.10;;;;;;;;;;5021126;28;20029;-66
2023/12/04 13:13:50;;;;;;;18.20;5.88;;;;;;;;;;5018559;28;20025;-62
2023/12/04 13:16:16;;;;;;;14.10;6.10;;;;;;;;;;5021051;28;20010;-66
2023/12/04 13:18:42;;;;;;;11.80;5.68;;;;;;;;;;5018418;28;20021;-64
2023/12/04 13:21:10;;;;;;;15.68;5.88;;;;;;;;;;5022618;28;20025;-65
2023/12/04 13:23:35;;;;;;;12.73;5.22;;;;;;;;;;5021508;28;20108;-66
2023/12/04 13:26:00;;;;;;;14.55;4.45;;;;;;;;;;5017582;28;20769;-65
2023/12/04 13:28:26;;;;;;;14.77;5.57;;;;;;;;;;5015739;28;21235;-65
2023/12/04 13:30:52;;;;;;;12.05;5.10;;;;;;;;;;5023561;28;20024;-65
2023/12/04 13:33:17;;;;;;;33.45;12.48;;;;;;;;;;5021495;28;20022;-65
2023/12/04 13:35:42;;;;;;;28.30;11.80;;;;;;;;;;5022032;28;20168;-67
2023/12/04 13:38:13;;;;;;;12.98;5.95;;;;;;;;;;5024114;28;20044;-67
2023/12/04 13:40:38;;;;;;;12.88;5.95;;;;;;;;;;5022839;28;20082;-66
2023/12/04 13:45:47;;;;;;;16.48;6.20;;;;;;;;;;5023447;28;20070;-66
2023/12/04 13:48:14;;;;;;;21.88;7.65;;;;;;;;;;5022301;28;20541;-66
2023/12/04 13:50:40;;;;;;;15.18;7.70;;;;;;;;;;5020929;28;20021;-65
2023/12/04 13:53:07;;;;;;;26.92;8.85;;;;;;;;;;5023265;28;20405;-65
2023/12/04 13:58:37;;;;;;;21.50;7.53;;;;;;;;;;5012959;28;20021;-64
2023/12/04 14:01:12;;;;;;;18.58;6.97;;;;;;;;;;5021747;28;20042;-66
2023/12/04 14:03:38;;;;;;;20.60;7.95;;;;;;;;;;5024301;28;20036;-65
2023/12/04 14:06:03;;;;;;;20.33;6.88;;;;;;;;;;5024956;28;20481;-66
2023/12/04 14:08:28;;;;;;;15.88;6.03;;;;;;;;;;5022643;28;20060;-65
2023/12/04 14:10:54;;;;;;;18.63;6.63;;;;;;;;;;5022124;28;20132;-65
2023/12/04 14:13:20;;;;;;;9.55;5.28;;;;;;;;;;5023126;28;20009;-67
2023/12/04 14:15:45;;;;;;;19.35;6.45;;;;;;;;;;5020987;28;20013;-68
2023/12/04 14:18:10;;;;;;;15.20;5.95;;;;;;;;;;5025642;28;20019;-66
2023/12/04 14:20:36;;;;;;;22.85;8.05;;;;;;;;;;5025295;28;20125;-69
2023/12/04 14:23:01;;;;;;;14.38;6.78;;;;;;;;;;5024207;28;20501;-63
2023/12/04 14:25:26;;;;;;;12.60;6.22;;;;;;;;;;5020510;28;20049;-65